createdAt,value
2022-08-28T00:01:11.924Z,21.12
2022-08-28T00:03:14.693Z,21.07
2022-08-28T00:05:20.057Z,21.07
2022-08-28T00:07:23.019Z,21.17
2022-08-28T00:09:34.111Z,21.34
2022-08-28T00:11:52.626Z,21.11
2022-08-28T00:14:07.101Z,21.29
2022-08-28T00:16:09.125Z,20.88
2022-08-28T00:18:12.826Z,20.86
2022-08-28T00:20:16.329Z,20.81
2022-08-28T00:22:18.985Z,21.04
2022-08-28T00:24:28.587Z,20.92
2022-08-28T00:26:48.812Z,20.92
2022-08-28T00:28:56.542Z,21.01
2022-08-28T00:31:29.207Z,20.66
2022-08-28T00:33:33.442Z,20.83
2022-08-28T00:35:44.518Z,20.79
2022-08-28T00:37:57.210Z,21.00
2022-08-28T00:40:06.179Z,20.83
2022-08-28T00:42:08.514Z,20.75
2022-08-28T00:44:12.820Z,20.80
2022-08-28T00:46:18.303Z,20.96
2022-08-28T00:48:22.344Z,21.05
2022-08-28T00:50:29.146Z,20.85
2022-08-28T00:52:31.384Z,20.83
2022-08-28T00:54:38.966Z,20.81
2022-08-28T00:56:41.693Z,20.49
2022-08-28T00:58:51.895Z,20.82
2022-08-28T01:00:57.902Z,20.51
2022-08-28T01:03:07.024Z,20.67
2022-08-28T01:05:10.894Z,20.45
2022-08-28T01:07:13.324Z,20.43
2022-08-28T01:09:15.422Z,20.57
2022-08-28T01:11:23.417Z,20.47
2022-08-28T01:13:25.643Z,20.67
2022-08-28T01:15:36.189Z,20.31
2022-08-28T01:17:40.131Z,20.36
2022-08-28T01:19:46.019Z,20.21
2022-08-28T01:21:51.042Z,20.27
2022-08-28T01:23:55.306Z,20.19
2022-08-28T01:26:00.033Z,20.42
2022-08-28T01:28:05.935Z,20.22
2022-08-28T01:30:08.958Z,20.47
2022-08-28T01:32:10.878Z,19.86
2022-08-28T01:34:13.095Z,20.13
2022-08-28T01:36:15.401Z,20.25
2022-08-28T01:38:20.102Z,19.84
2022-08-28T01:40:24.721Z,19.98
2022-08-28T01:42:26.886Z,19.93
2022-08-28T01:44:29.470Z,19.99
2022-08-28T01:46:33.033Z,20.12
2022-08-28T01:48:36.078Z,20.20
2022-08-28T01:50:38.147Z,19.81
2022-08-28T01:52:40.470Z,19.77
2022-08-28T01:54:44.604Z,19.95
2022-08-28T01:56:48.194Z,20.19
2022-08-28T01:58:50.663Z,20.19
2022-08-28T02:00:52.695Z,20.10
2022-08-28T02:02:55.620Z,20.06
2022-08-28T02:05:00.368Z,19.97
2022-08-28T02:07:02.895Z,20.10
2022-08-28T02:09:05.131Z,20.00
2022-08-28T02:11:07.780Z,20.11
2022-08-28T02:13:11.320Z,20.19
2022-08-28T02:15:13.658Z,20.05
2022-08-28T02:17:15.809Z,19.99
2022-08-28T02:19:17.929Z,20.14
2022-08-28T02:21:24.537Z,20.15
2022-08-28T02:23:29.152Z,20.16
2022-08-28T02:25:31.648Z,19.96
2022-08-28T02:27:35.873Z,20.10
2022-08-28T02:29:39.614Z,20.17
2022-08-28T02:31:43.935Z,19.89
2022-08-28T02:33:51.892Z,19.97
2022-08-28T02:35:53.955Z,20.00
2022-08-28T02:37:55.918Z,19.75
2022-08-28T02:40:01.968Z,19.87
2022-08-28T02:42:04.231Z,19.79
2022-08-28T02:44:12.653Z,19.79
2022-08-28T02:46:21.863Z,19.70
2022-08-28T02:48:35.840Z,19.51
2022-08-28T02:50:37.926Z,19.65
2022-08-28T02:52:40.531Z,19.65
2022-08-28T02:54:42.882Z,19.52
2022-08-28T02:56:45.206Z,19.62
2022-08-28T02:58:47.254Z,19.76
2022-08-28T03:00:49.426Z,19.48
2022-08-28T03:02:52.924Z,19.34
2022-08-28T03:04:55.074Z,19.61
2022-08-28T03:06:57.095Z,19.30
2022-08-28T03:08:59.116Z,19.15
2022-08-28T03:11:03.747Z,19.16
2022-08-28T03:13:23.049Z,19.49
2022-08-28T03:15:30.246Z,19.57
2022-08-28T03:17:47.838Z,19.16
2022-08-28T03:19:51.734Z,19.26
2022-08-28T03:22:08.441Z,19.39
2022-08-28T03:24:10.716Z,19.43
2022-08-28T03:26:44.326Z,19.52
2022-08-28T03:28:47.413Z,19.23
2022-08-28T03:30:49.684Z,19.22
2022-08-28T03:32:54.322Z,19.48
2022-08-28T03:34:59.435Z,19.33
2022-08-28T03:37:04.504Z,19.22
2022-08-28T03:39:09.477Z,19.05
2022-08-28T03:41:14.788Z,19.14
2022-08-28T03:43:18.504Z,19.03
2022-08-28T03:45:20.919Z,18.98
2022-08-28T03:47:29.985Z,19.05
2022-08-28T03:49:32.605Z,19.00
2022-08-28T03:51:36.795Z,19.05
2022-08-28T03:53:39.358Z,18.63
2022-08-28T03:55:41.359Z,18.61
2022-08-28T03:57:43.257Z,18.84
2022-08-28T03:59:45.752Z,18.85
2022-08-28T04:01:48.066Z,18.68
2022-08-28T04:03:50.525Z,18.74
2022-08-28T04:05:52.572Z,18.69
2022-08-28T04:07:56.162Z,18.34
2022-08-28T04:10:01.394Z,18.45
2022-08-28T04:12:06.009Z,18.56
2022-08-28T04:14:10.354Z,18.82
2022-08-28T04:16:14.018Z,18.86
2022-08-28T04:18:15.979Z,18.54
2022-08-28T04:20:18.064Z,18.74
2022-08-28T04:22:21.309Z,18.78
2022-08-28T04:24:29.195Z,18.56
2022-08-28T04:26:31.456Z,18.37
2022-08-28T04:28:33.805Z,18.34
2022-08-28T04:30:37.010Z,18.38
2022-08-28T04:32:41.691Z,18.56
2022-08-28T04:34:47.929Z,18.56
2022-08-28T04:36:50.587Z,18.42
2022-08-28T04:38:55.958Z,18.44
2022-08-28T04:41:05.877Z,18.39
2022-08-28T04:43:14.941Z,18.31
2022-08-28T04:45:17.282Z,18.30
2022-08-28T04:47:19.496Z,18.41
2022-08-28T04:49:21.493Z,18.22
2022-08-28T04:51:28.296Z,18.17
2022-08-28T04:53:30.272Z,18.18
2022-08-28T04:55:48.474Z,18.40
2022-08-28T04:57:55.639Z,18.16
2022-08-28T04:59:57.686Z,18.20
2022-08-28T05:01:59.675Z,18.14
2022-08-28T05:04:02.424Z,18.33
2022-08-28T05:06:04.707Z,18.19
2022-08-28T05:08:07.773Z,18.22
2022-08-28T05:10:10.050Z,18.06
2022-08-28T05:12:12.244Z,18.15
2022-08-28T05:14:16.402Z,18.37
2022-08-28T05:16:18.856Z,18.32
2022-08-28T05:18:21.769Z,18.42
2022-08-28T05:20:23.681Z,18.27
2022-08-28T05:22:25.613Z,18.27
2022-08-28T05:24:27.712Z,18.61
2022-08-28T05:26:33.061Z,18.19
2022-08-28T05:28:35.152Z,18.40
2022-08-28T05:30:44.781Z,18.16
2022-08-28T05:32:47.961Z,18.41
2022-08-28T05:34:49.973Z,18.67
2022-08-28T05:36:52.177Z,18.46
2022-08-28T05:38:55.506Z,18.64
2022-08-28T05:40:57.624Z,18.63
2022-08-28T05:43:00.457Z,18.84
2022-08-28T05:45:04.231Z,18.78
2022-08-28T05:47:07.677Z,18.88
2022-08-28T05:49:10.408Z,18.98
2022-08-28T05:51:13.869Z,18.77
2022-08-28T05:53:16.697Z,18.82
2022-08-28T05:55:18.910Z,18.89
2022-08-28T05:57:20.901Z,18.99
2022-08-28T05:59:25.602Z,19.07
2022-08-28T06:01:28.491Z,19.04
2022-08-28T06:03:32.142Z,19.01
2022-08-28T06:05:34.290Z,19.11
2022-08-28T06:07:36.391Z,19.14
2022-08-28T06:09:38.369Z,19.05
2022-08-28T06:11:44.660Z,19.48
2022-08-28T06:13:47.997Z,19.13
2022-08-28T06:15:50.027Z,19.09
2022-08-28T06:17:52.070Z,19.67
2022-08-28T06:19:55.503Z,19.61
2022-08-28T06:21:58.064Z,19.75
2022-08-28T06:24:00.036Z,19.35
2022-08-28T06:26:02.034Z,19.91
2022-08-28T06:28:04.099Z,19.72
2022-08-28T06:30:06.733Z,19.82
2022-08-28T06:32:08.845Z,19.77
2022-08-28T06:34:10.864Z,19.88
2022-08-28T06:36:14.265Z,19.39
2022-08-28T06:38:16.666Z,19.86
2022-08-28T06:40:18.690Z,19.59
2022-08-28T06:42:20.747Z,19.60
2022-08-28T06:44:39.236Z,19.88
2022-08-28T06:46:41.355Z,20.04
2022-08-28T06:48:43.416Z,19.73
2022-08-28T06:50:49.051Z,20.22
2022-08-28T06:52:52.335Z,20.35
2022-08-28T06:54:55.880Z,20.05
2022-08-28T06:56:58.122Z,20.06
2022-08-28T06:59:00.287Z,19.76
2022-08-28T07:01:03.570Z,19.75
2022-08-28T07:03:05.636Z,20.25
2022-08-28T07:05:07.751Z,20.08
2022-08-28T07:07:09.684Z,20.39
2022-08-28T07:09:24.030Z,20.43
2022-08-28T07:11:30.241Z,20.61
2022-08-28T07:13:33.851Z,20.92
2022-08-28T07:15:42.178Z,20.43
2022-08-28T07:17:46.272Z,20.68
2022-08-28T07:19:48.486Z,20.22
2022-08-28T07:21:52.216Z,20.43
2022-08-28T07:23:54.729Z,20.47
2022-08-28T07:25:58.169Z,20.66
2022-08-28T07:28:00.206Z,20.65
2022-08-28T07:30:02.274Z,20.94
2022-08-28T07:32:04.592Z,21.29
2022-08-28T07:34:06.565Z,21.07
2022-08-28T07:36:09.000Z,21.35
2022-08-28T07:38:18.043Z,20.94
2022-08-28T07:40:20.019Z,21.32
2022-08-28T07:42:23.332Z,21.11
2022-08-28T07:44:25.311Z,20.97
2022-08-28T07:46:27.377Z,20.99
2022-08-28T07:48:29.392Z,21.58
2022-08-28T07:50:31.306Z,21.28
2022-08-28T07:52:33.376Z,21.23
2022-08-28T07:54:35.340Z,21.84
2022-08-28T07:56:37.238Z,21.37
2022-08-28T07:58:44.162Z,21.24
2022-08-28T08:00:46.345Z,21.68
2022-08-28T08:02:48.278Z,21.72
2022-08-28T08:04:50.186Z,21.60
2022-08-28T08:06:57.016Z,22.29
2022-08-28T08:08:59.985Z,22.18
2022-08-28T08:11:06.729Z,21.95
2022-08-28T08:13:13.276Z,22.28
2022-08-28T08:15:17.704Z,21.91
2022-08-28T08:17:19.715Z,21.78
2022-08-28T08:21:45.367Z,22.38
2022-08-28T08:23:47.717Z,22.90
2022-08-28T08:25:56.132Z,22.69
2022-08-28T08:27:58.135Z,21.96
2022-08-28T08:30:00.029Z,22.71
2022-08-28T08:32:04.165Z,23.25
2022-08-28T08:34:06.138Z,23.14
2022-08-28T08:38:40.483Z,23.27
2022-08-28T08:40:42.985Z,23.93
2022-08-28T08:42:45.168Z,23.83
2022-08-28T08:44:47.220Z,24.35
2022-08-28T08:46:49.750Z,24.05
2022-08-28T08:48:53.166Z,24.21
2022-08-28T08:50:55.757Z,24.17
2022-08-28T08:53:07.015Z,24.10
2022-08-28T08:55:14.986Z,24.26
2022-08-28T08:57:17.227Z,24.94
2022-08-28T08:59:20.080Z,24.22
2022-08-28T09:01:23.670Z,24.47
2022-08-28T09:03:26.626Z,24.90
2022-08-28T09:05:33.403Z,24.81
2022-08-28T09:07:37.304Z,25.07
2022-08-28T09:09:41.288Z,25.14
2022-08-28T09:11:45.734Z,24.65
2022-08-28T09:13:54.845Z,24.83
2022-08-28T09:15:56.781Z,24.97
2022-08-28T09:18:03.778Z,25.09
2022-08-28T09:20:06.123Z,25.14
2022-08-28T09:22:09.709Z,25.35
2022-08-28T09:24:14.574Z,24.72
2022-08-28T09:26:22.502Z,25.07
2022-08-28T09:28:25.327Z,24.85
2022-08-28T09:30:29.603Z,24.63
2022-08-28T09:32:32.462Z,24.53
2022-08-28T09:34:38.601Z,24.93
2022-08-28T09:36:41.109Z,25.00
2022-08-28T09:38:44.725Z,25.20
2022-08-28T09:40:46.583Z,24.93
2022-08-28T09:42:58.566Z,26.01
2022-08-28T09:45:01.457Z,25.74
2022-08-28T09:47:03.594Z,25.78
2022-08-28T09:49:10.134Z,25.24
2022-08-28T09:51:12.777Z,25.42
2022-08-28T09:53:16.388Z,25.61
2022-08-28T09:55:20.207Z,25.41
2022-08-28T09:57:22.418Z,26.11
2022-08-28T09:59:25.337Z,25.92
2022-08-28T10:01:34.227Z,25.64
2022-08-28T10:03:37.532Z,25.58
2022-08-28T10:05:40.450Z,25.34
2022-08-28T10:07:44.183Z,25.44
2022-08-28T10:09:47.850Z,25.83
2022-08-28T10:11:53.036Z,25.78
2022-08-28T10:13:57.590Z,26.05
2022-08-28T10:16:12.949Z,26.10
2022-08-28T10:18:19.308Z,25.41
2022-08-28T10:20:22.878Z,25.61
2022-08-28T10:22:29.002Z,25.49
2022-08-28T10:24:33.981Z,26.20
2022-08-28T10:26:37.549Z,25.81
2022-08-28T10:28:43.441Z,26.12
2022-08-28T10:30:46.945Z,26.54
2022-08-28T10:32:57.266Z,26.23
2022-08-28T10:35:01.958Z,26.82
2022-08-28T10:37:06.811Z,26.45
2022-08-28T10:39:12.201Z,26.28
2022-08-28T10:41:16.176Z,26.36
2022-08-28T10:43:18.701Z,26.24
2022-08-28T10:45:22.478Z,26.72
2022-08-28T10:47:24.975Z,27.08
2022-08-28T10:49:29.014Z,27.90
2022-08-28T10:51:35.275Z,27.24
2022-08-28T10:53:38.445Z,27.98
2022-08-28T10:55:43.646Z,27.95
2022-08-28T10:57:47.657Z,27.27
2022-08-28T10:59:50.735Z,27.08
2022-08-28T11:01:54.199Z,28.25
2022-08-28T11:03:57.076Z,27.75
2022-08-28T11:05:59.566Z,28.20
2022-08-28T11:08:01.902Z,29.01
2022-08-28T11:10:18.259Z,29.24
2022-08-28T11:12:34.091Z,29.24
2022-08-28T11:14:44.625Z,28.31
2022-08-28T11:16:50.459Z,28.07
2022-08-28T11:19:04.023Z,28.72
2022-08-28T11:21:07.120Z,29.31
2022-08-28T11:23:09.532Z,29.45
2022-08-28T11:25:13.494Z,29.50
2022-08-28T11:27:16.998Z,29.91
2022-08-28T11:29:33.892Z,29.90
2022-08-28T11:31:38.064Z,29.21
2022-08-28T11:33:40.639Z,29.86
2022-08-28T11:35:59.388Z,29.72
2022-08-28T11:38:01.552Z,30.52
2022-08-28T11:40:13.621Z,30.61
2022-08-28T11:42:30.386Z,30.25
2022-08-28T11:44:39.364Z,30.82
2022-08-28T11:46:42.129Z,30.71
2022-08-28T11:48:45.324Z,31.29
2022-08-28T11:50:56.260Z,31.09
2022-08-28T11:53:17.309Z,30.75
2022-08-28T11:55:20.780Z,30.41
2022-08-28T11:57:24.077Z,31.55
2022-08-28T11:59:36.025Z,31.89
2022-08-28T12:01:37.995Z,31.89
2022-08-28T12:03:49.509Z,31.86
2022-08-28T12:05:54.286Z,30.61
2022-08-28T12:07:56.136Z,31.82
2022-08-28T12:10:01.733Z,32.07
2022-08-28T12:12:08.850Z,32.04
2022-08-28T12:14:11.229Z,32.98
2022-08-28T12:16:15.768Z,31.58
2022-08-28T12:18:33.482Z,31.50
2022-08-28T12:20:58.959Z,33.16
2022-08-28T12:23:01.990Z,32.95
2022-08-28T12:25:05.092Z,33.85
2022-08-28T12:27:07.113Z,33.40
2022-08-28T12:29:17.908Z,32.97
2022-08-28T12:31:46.532Z,33.07
2022-08-28T12:33:50.379Z,32.00
2022-08-28T12:35:53.083Z,33.25
2022-08-28T12:38:03.920Z,33.27
2022-08-28T12:40:12.429Z,33.69
2022-08-28T12:42:14.769Z,33.25
2022-08-28T12:44:16.907Z,33.84
2022-08-28T12:46:21.012Z,32.64
2022-08-28T12:48:23.731Z,32.22
2022-08-28T12:50:26.997Z,32.55
2022-08-28T12:52:29.258Z,31.44
2022-08-28T12:54:33.295Z,30.91
2022-08-28T12:56:36.006Z,30.36
2022-08-28T12:58:38.868Z,32.05
2022-08-28T13:00:48.599Z,31.13
2022-08-28T13:02:51.511Z,30.84
2022-08-28T13:04:55.634Z,31.03
2022-08-28T13:06:57.702Z,31.06
2022-08-28T13:09:00.947Z,29.72
2022-08-28T13:11:07.166Z,29.86
2022-08-28T13:13:09.915Z,30.48
2022-08-28T13:15:11.765Z,32.48
2022-08-28T13:17:14.269Z,35.42
2022-08-28T13:19:25.055Z,36.21
2022-08-28T13:21:32.739Z,36.21
2022-08-28T13:23:36.348Z,33.32
2022-08-28T13:25:38.212Z,33.13
2022-08-28T13:27:41.332Z,33.74
2022-08-28T13:29:48.646Z,32.58
2022-08-28T13:31:55.543Z,33.82
2022-08-28T13:34:02.146Z,36.14
2022-08-28T13:36:19.017Z,34.73
2022-08-28T13:38:21.514Z,33.81
2022-08-28T13:42:50.039Z,30.79
2022-08-28T13:44:52.481Z,31.83
2022-08-28T13:46:54.267Z,33.39
2022-08-28T13:48:56.076Z,36.06
2022-08-28T13:50:59.057Z,39.10
2022-08-28T13:53:00.934Z,40.41
2022-08-28T13:55:02.890Z,41.63
2022-08-28T13:57:04.813Z,41.93
2022-08-28T13:59:07.945Z,38.38
2022-08-28T14:01:09.734Z,36.62
2022-08-28T14:03:11.801Z,36.80
2022-08-28T14:05:13.794Z,37.18
2022-08-28T14:07:16.373Z,36.41
2022-08-28T14:09:18.298Z,36.61
2022-08-28T14:11:20.353Z,37.97
2022-08-28T14:13:22.123Z,38.10
2022-08-28T14:15:25.296Z,37.32
2022-08-28T14:17:27.184Z,36.01
2022-08-28T14:19:29.328Z,36.95
2022-08-28T14:21:31.372Z,36.80
2022-08-28T14:23:33.644Z,35.81
2022-08-28T14:25:39.105Z,33.91
2022-08-28T14:27:41.331Z,35.49
2022-08-28T14:29:43.232Z,35.37
2022-08-28T14:31:46.675Z,34.09
2022-08-28T14:33:51.408Z,36.87
2022-08-28T14:35:53.540Z,38.09
2022-08-28T14:37:55.466Z,41.59
2022-08-28T14:39:57.373Z,40.55
2022-08-28T14:41:59.304Z,40.14
2022-08-28T14:44:01.257Z,41.03
2022-08-28T14:46:03.884Z,41.73
2022-08-28T14:48:08.606Z,43.15
2022-08-28T14:50:10.564Z,39.17
2022-08-28T14:52:12.376Z,36.12
2022-08-28T14:54:14.956Z,36.01
2022-08-28T14:56:16.724Z,36.45
2022-08-28T14:58:18.720Z,35.82
2022-08-28T15:00:20.747Z,36.09
2022-08-28T15:02:22.556Z,36.64
2022-08-28T15:04:26.417Z,36.55
2022-08-28T15:06:28.460Z,37.70
2022-08-28T15:08:30.425Z,36.92
2022-08-28T15:10:32.526Z,38.34
2022-08-28T15:12:34.589Z,40.79
2022-08-28T15:14:36.540Z,39.19
2022-08-28T15:16:41.521Z,39.45
2022-08-28T15:18:43.562Z,40.27
2022-08-28T15:20:49.011Z,38.94
2022-08-28T15:22:50.799Z,39.39
2022-08-28T15:24:52.735Z,37.86
2022-08-28T15:26:57.555Z,36.69
2022-08-28T15:29:00.682Z,39.18
2022-08-28T15:31:02.832Z,38.50
2022-08-28T15:33:04.926Z,39.44
2022-08-28T15:35:07.349Z,40.12
2022-08-28T15:37:10.576Z,39.43
2022-08-28T15:39:15.380Z,40.31
2022-08-28T15:41:17.161Z,39.53
2022-08-28T15:43:19.115Z,40.25
2022-08-28T15:45:21.048Z,40.50
2022-08-28T15:47:22.858Z,39.37
2022-08-28T15:49:25.187Z,38.42
2022-08-28T15:51:27.071Z,36.74
2022-08-28T15:53:31.368Z,37.20
2022-08-28T15:55:33.639Z,36.95
2022-08-28T15:57:35.591Z,36.25
2022-08-28T15:59:37.975Z,35.12
2022-08-28T16:01:53.565Z,35.14
2022-08-28T16:03:55.380Z,34.60
2022-08-28T16:05:57.180Z,34.23
2022-08-28T16:07:58.962Z,34.89
2022-08-28T16:10:03.830Z,33.93
2022-08-28T16:12:05.785Z,32.54
2022-08-28T16:14:08.430Z,32.40
2022-08-28T16:16:10.395Z,32.00
2022-08-28T16:18:12.417Z,32.02
2022-08-28T16:20:14.426Z,31.32
2022-08-28T16:22:16.834Z,31.40
2022-08-28T16:24:18.753Z,31.39
2022-08-28T16:26:22.045Z,31.40
2022-08-28T16:28:24.065Z,31.24
2022-08-28T16:30:29.280Z,31.70
2022-08-28T16:32:31.406Z,31.53
2022-08-28T16:34:34.137Z,31.91
2022-08-28T16:36:36.148Z,31.54
2022-08-28T16:38:38.075Z,31.23
2022-08-28T16:40:41.441Z,30.62
2022-08-28T16:42:51.689Z,31.90
2022-08-28T16:44:55.378Z,31.76
2022-08-28T16:46:57.257Z,32.34
2022-08-28T16:48:59.227Z,33.33
2022-08-28T16:51:01.518Z,33.74
2022-08-28T16:53:07.058Z,33.37
2022-08-28T16:55:09.945Z,32.68
2022-08-28T16:57:12.133Z,32.92
2022-08-28T16:59:15.397Z,33.37
2022-08-28T17:01:17.285Z,33.64
2022-08-28T17:03:22.034Z,33.97
2022-08-28T17:05:27.648Z,34.90
2022-08-28T17:07:29.615Z,34.98
2022-08-28T17:09:32.901Z,35.52
2022-08-28T17:11:35.249Z,35.77
2022-08-28T17:13:38.164Z,36.12
2022-08-28T17:15:41.524Z,35.37
2022-08-28T17:17:43.580Z,34.01
2022-08-28T17:19:45.513Z,34.92
2022-08-28T17:21:47.541Z,35.03
2022-08-28T17:23:49.544Z,35.74
2022-08-28T17:25:51.448Z,34.25
2022-08-28T17:27:53.479Z,33.22
2022-08-28T17:29:55.367Z,33.01
2022-08-28T17:31:58.642Z,32.40
2022-08-28T17:34:00.734Z,32.83
2022-08-28T17:36:03.707Z,32.69
2022-08-28T17:38:05.866Z,32.40
2022-08-28T17:40:11.378Z,31.77
2022-08-28T17:42:13.242Z,30.78
2022-08-28T17:44:15.107Z,31.79
2022-08-28T17:46:16.987Z,32.18
2022-08-28T17:48:20.304Z,31.24
2022-08-28T17:50:22.860Z,31.24
2022-08-28T17:52:24.874Z,29.83
2022-08-28T17:54:26.925Z,29.55
2022-08-28T17:56:35.680Z,29.93
2022-08-28T17:58:40.774Z,30.02
2022-08-28T18:00:44.240Z,29.49
2022-08-28T18:02:48.531Z,29.02
2022-08-28T18:04:51.842Z,28.51
2022-08-28T18:06:53.829Z,28.31
2022-08-28T18:08:55.649Z,28.09
2022-08-28T18:10:57.476Z,28.41
2022-08-28T18:12:59.358Z,28.13
2022-08-28T18:15:01.161Z,28.27
2022-08-28T18:17:03.516Z,27.96
2022-08-28T18:19:05.843Z,27.80
2022-08-28T18:21:10.596Z,27.57
2022-08-28T18:23:12.360Z,27.33
2022-08-28T18:25:17.429Z,27.41
2022-08-28T18:27:19.179Z,27.71
2022-08-28T18:29:21.077Z,27.45
2022-08-28T18:31:23.013Z,27.64
2022-08-28T18:33:24.820Z,27.45
2022-08-28T18:35:31.536Z,27.33
2022-08-28T18:37:35.479Z,27.49
2022-08-28T18:39:37.304Z,27.22
2022-08-28T18:41:44.484Z,26.97
2022-08-28T18:43:46.818Z,27.00
2022-08-28T18:45:48.683Z,27.17
2022-08-28T18:47:50.475Z,26.91
2022-08-28T18:49:52.418Z,26.64
2022-08-28T18:51:54.393Z,26.69
2022-08-28T18:53:57.586Z,26.59
2022-08-28T18:56:02.698Z,26.66
2022-08-28T18:58:06.349Z,26.59
2022-08-28T19:00:09.661Z,26.40
2022-08-28T19:02:11.640Z,26.25
2022-08-28T19:04:13.541Z,26.26
2022-08-28T19:06:15.683Z,26.31
2022-08-28T19:08:17.496Z,26.26
2022-08-28T19:10:32.632Z,26.11
2022-08-28T19:12:35.133Z,26.60
2022-08-28T19:14:37.024Z,26.12
2022-08-28T19:16:38.996Z,26.31
2022-08-28T19:18:40.834Z,26.18
2022-08-28T19:20:42.628Z,25.88
2022-08-28T19:22:44.467Z,26.23
2022-08-28T19:24:47.548Z,26.07
2022-08-28T19:26:50.693Z,25.89
2022-08-28T19:28:52.520Z,26.00
2022-08-28T19:30:54.376Z,25.94
2022-08-28T19:32:56.209Z,25.85
2022-08-28T19:34:58.256Z,25.73
2022-08-28T19:37:00.200Z,25.66
2022-08-28T19:39:02.087Z,25.66
2022-08-28T19:41:05.076Z,25.77
2022-08-28T19:43:08.577Z,25.83
2022-08-28T19:45:16.000Z,26.01
2022-08-28T19:47:17.953Z,25.81
2022-08-28T19:49:19.810Z,25.77
2022-08-28T19:51:23.150Z,25.58
2022-08-28T19:53:25.568Z,25.66
2022-08-28T19:55:27.694Z,25.51
2022-08-28T19:57:29.571Z,25.26
2022-08-28T19:59:32.904Z,25.28
2022-08-28T20:01:35.614Z,25.63
2022-08-28T20:03:37.468Z,25.38
2022-08-28T20:05:39.237Z,25.10
2022-08-28T20:07:41.184Z,25.06
2022-08-28T20:09:43.124Z,25.24
2022-08-28T20:11:44.887Z,25.29
2022-08-28T20:13:46.697Z,25.20
2022-08-28T20:15:49.902Z,24.97
2022-08-28T20:17:51.732Z,24.98
2022-08-28T20:19:53.686Z,25.19
2022-08-28T20:21:55.458Z,24.93
2022-08-28T20:23:57.253Z,24.99
2022-08-28T20:25:59.269Z,25.16
2022-08-28T20:28:01.925Z,25.06
2022-08-28T20:30:09.453Z,24.69
2022-08-28T20:32:14.349Z,24.77
2022-08-28T20:34:16.696Z,24.70
2022-08-28T20:36:21.388Z,24.70
2022-08-28T20:38:23.510Z,24.70
2022-08-28T20:40:25.453Z,24.48
2022-08-28T20:42:28.063Z,24.62
2022-08-28T20:44:33.694Z,24.73
2022-08-28T20:46:40.014Z,24.59
2022-08-28T20:48:44.652Z,24.57
2022-08-28T20:50:46.599Z,24.46
2022-08-28T20:52:48.537Z,24.42
2022-08-28T20:54:50.328Z,24.56
2022-08-28T20:56:52.314Z,24.53
2022-08-28T20:58:54.275Z,24.74
2022-08-28T21:00:59.452Z,24.48
2022-08-28T21:03:01.596Z,24.26
2022-08-28T21:05:05.327Z,24.32
2022-08-28T21:07:07.531Z,24.39
2022-08-28T21:09:09.303Z,24.07
2022-08-28T21:11:11.173Z,24.38
2022-08-28T21:13:14.195Z,24.24
2022-08-28T21:15:15.986Z,24.24
2022-08-28T21:17:17.814Z,24.14
2022-08-28T21:19:31.124Z,24.04
2022-08-28T21:21:34.807Z,24.25
2022-08-28T21:23:36.794Z,24.18
2022-08-28T21:25:39.526Z,24.37
2022-08-28T21:27:41.722Z,24.13
2022-08-28T21:29:43.669Z,24.00
2022-08-28T21:31:45.714Z,24.20
2022-08-28T21:33:47.501Z,23.83
2022-08-28T21:35:49.344Z,23.59
2022-08-28T21:37:52.507Z,23.86
2022-08-28T21:39:56.347Z,23.70
2022-08-28T21:41:59.155Z,23.75
2022-08-28T21:44:01.254Z,23.84
2022-08-28T21:46:03.785Z,23.85
2022-08-28T21:48:05.677Z,23.89
2022-08-28T21:50:07.966Z,23.92
2022-08-28T21:52:10.035Z,23.76
2022-08-28T21:54:13.275Z,23.74
2022-08-28T21:56:15.737Z,23.74
2022-08-28T21:58:17.694Z,23.76
2022-08-28T22:00:20.449Z,23.53
2022-08-28T22:02:22.468Z,23.73
2022-08-28T22:04:24.300Z,23.75
2022-08-28T22:06:26.155Z,23.67
2022-08-28T22:08:27.933Z,23.42
2022-08-28T22:10:31.251Z,23.56
2022-08-28T22:12:33.104Z,23.48
2022-08-28T22:14:35.027Z,23.58
2022-08-28T22:16:36.913Z,23.23
2022-08-28T22:18:38.758Z,23.01
2022-08-28T22:20:41.699Z,23.17
2022-08-28T22:22:43.516Z,23.26
2022-08-28T22:24:45.330Z,23.15
2022-08-28T22:26:48.706Z,23.14
2022-08-28T22:28:59.500Z,22.85
2022-08-28T22:31:01.361Z,22.98
2022-08-28T22:33:03.483Z,23.20
2022-08-28T22:35:05.825Z,23.10
2022-08-28T22:37:07.839Z,22.66
2022-08-28T22:39:09.706Z,22.80
2022-08-28T22:41:11.571Z,22.89
2022-08-28T22:43:14.761Z,22.59
2022-08-28T22:45:16.719Z,22.78
2022-08-28T22:47:18.849Z,22.91
2022-08-28T22:49:20.954Z,22.93
2022-08-28T22:51:22.771Z,23.03
2022-08-28T22:53:24.563Z,22.68
2022-08-28T22:55:26.498Z,22.91
2022-08-28T22:57:28.416Z,22.67
2022-08-28T22:59:31.584Z,22.73
2022-08-28T23:01:33.645Z,22.89
2022-08-28T23:03:35.512Z,23.04
2022-08-28T23:05:37.400Z,22.89
2022-08-28T23:07:39.228Z,22.82
2022-08-28T23:09:41.399Z,22.51
2022-08-28T23:11:43.499Z,22.55
2022-08-28T23:13:45.346Z,22.50
2022-08-28T23:15:48.855Z,22.51
2022-08-28T23:17:50.650Z,22.55
2022-08-28T23:19:52.540Z,22.58
2022-08-28T23:21:54.340Z,22.24
2022-08-28T23:23:56.359Z,22.46
2022-08-28T23:25:58.173Z,22.49
2022-08-28T23:28:03.432Z,22.20
2022-08-28T23:30:07.996Z,22.44
2022-08-28T23:32:11.258Z,22.55
2022-08-28T23:34:13.161Z,22.62
2022-08-28T23:36:15.067Z,22.44
2022-08-28T23:38:19.369Z,22.35
2022-08-28T23:40:25.115Z,22.47
2022-08-28T23:42:29.961Z,22.32
2022-08-28T23:44:31.895Z,22.33
2022-08-28T23:46:34.112Z,22.54
2022-08-28T23:48:37.270Z,22.12
2022-08-28T23:50:40.319Z,22.19
2022-08-28T23:52:44.175Z,21.97
2022-08-28T23:54:46.150Z,22.50
2022-08-28T23:56:48.093Z,22.20
2022-08-28T23:58:54.204Z,22.30
